Airfield :
LOGIN :

Register | Disclaimer

   EN    FR    IT 

 










Legend :    VFR   Marginal VFR   IFR   Intensive IFR   Very Intensive IFR
Visi :
Ceiling :
>= 8 km
>= 3000ft
5 to 8 km
1000 to 3000 ft
1500m to 5 km
500 to 1000 ft
800 to 1500m
200 to 500 ft
< 800m
< 200 ft
Symbols :   Thunderstorms  Fog  Heavy snow  Heavy precipitations  Wind > 20 kt
SIGMETs :     Misc.  Thunderstorms  Icing  Turbulence  Mountain Waves  Volcanic Ashes







- Airport Elevation : 614 ft
- IATA code : CRL


EBCI - Charleroi

CURRENT METAR :
  • 230650Z 13008KT 9000 FEW010 BKN024 M01/M03 Q0994 R24/450095 TEMPO 3500 -SN BR BKN003

EXPIRED METARs :
  • 230620Z 12009KT 6000 -SN SCT010 BKN024 M01/M03 Q0994 R24/491094 TEMPO 1500 SN BR BKN003
  • 230550Z 12008KT 3500 -SN BR SCT004 BKN006 M01/M03 Q0994 R24/491094 TEMPO 1500 SN BR BKN003
  • 230520Z 12008KT 3500 -SN BR SCT004 BKN006 M01/M02 Q0994 R24/491094 TEMPO 1500 SN BR BKN003
  • 230450Z 12008KT 2500 -SN BR SCT004 BKN006 M01/M02 Q0994 R24/491094 TEMPO 1500 SN BR BKN003
  • 230420Z 12008KT 3500 -SN BR SCT003 BKN007 M01/M02 Q0994 R24/491094 TEMPO 2000 -SN BR BKN004
  • 230350Z 12008KT 1500 -SN BR BKN005 BKN007 M01/M02 Q0994 R24/491094 TEMPO 1200 SN BR BKN005

TAF TAF EBCI
Valid from the 23 at 06:00 until the 24 at 12:00 UTC


230520Z 2306/2412 09007KT 5000 BKN006
TEMPO 2306/2309 2200 BR -SN
PROB30
TEMPO 2306/2309 0900 SN BKN002
BECMG 2308/2310 SCT012
BECMG 2315/2317 BKN007
TEMPO 2317/2324 1800 SN BKN003
No reported NOTAMs for that airfield.



MET'MAP, your aeronautical weather chart ! - Copyright ORBIFLY December 2007 - Disclaimer

ORBIFLY MET'MAP TEAM :

Programming & Development : Alexandra Zaïnal
Concept & Development : Baudouin d'Aumeries
Co-Development & Prog : Marc-Olivier Méhu
Technical & hardware support : Manuel Goepfert

Contact : metmap@orbifly.com




SOURCES & CREDITS :

   NOAA